Magsenger 19 — VRJY9 — position and weather

sailwx.info

Track history (hours):
 
Tides and Currents Weather Stations Pressure Air Temp Water Temp Dewpoint Dewpoint Depression Visibility Wind Speed Wind Dir Waves Ship Positions

Magsenger 19

Last reported at 2017-Dec-24 09:36 UTC. Time now 2018-Feb-23 12:33 UTC.
Position N 36°50' W 075°47'.
Warning: this ship's position is months out of date.

Length 254 m; draft 14.4 m.

Type: Cargo ship. MMSI: 477638400.

Date/timePositionNaut miles runAvg speedWind from/ knotsBaromVisibWave heightAir tempDewpointWater temp
2017-Dec-24 09:36N 36°50' W 075°47'410.1
2017-Dec-24 09:14N 36°51' W 075°50'2 9.5
2017-Dec-24 09:00N 36°53' W 075°53'5 9.6
2017-Dec-24 08:30N 36°56' W 075°57'510.0
2017-Dec-24 08:00N 36°57' W 076°03'5 9.7
2017-Dec-24 07:30N 36°59' W 076°09'6 9.2
2017-Dec-24 06:54N 37°00' W 076°16'410.3
2017-Dec-24 06:29N 36°58' W 076°20'4 8.1
2017-Dec-24 06:00N 36°57' W 076°25'1 0.0
2017-Dec-23 01:07N 36°58' W 076°26'0 0.0
2017-Dec-23 00:58N 36°58' W 076°26'0 0.0
2017-Dec-22 11:55N 36°58' W 076°26'0 0.7
2017-Dec-22 11:29N 36°58' W 076°26'3 6.3
2017-Dec-22 11:00N 36°57' W 076°22'611.4
2017-Dec-22 10:29N 37°00' W 076°16'612.8
2017-Dec-22 10:00N 36°59' W 076°08'612.7
2017-Dec-22 09:30N 36°57' W 076°01'5 9.1
2017-Dec-22 09:00N 36°56' W 075°55'3 7.0
2017-Dec-22 08:30N 36°53' W 075°52'5 9.5
2017-Dec-22 08:00N 36°50' W 075°47'  
Track history (hours):
 
Tides and Currents Weather Stations Pressure Air Temp Water Temp Dewpoint Dewpoint Depression Visibility Wind Speed Wind Dir Waves Ship Positions

Magsenger 19

Last reported at 2017-Dec-24 09:36 UTC. Time now 2018-Feb-23 12:33 UTC.
Position N 36°50' W 075°47'.
Warning: this ship's position is months out of date.

Length 254 m; draft 14.4 m.

Type: Cargo ship. MMSI: 477638400.

Date/timePositionNaut miles runAvg speedWind from/ knotsBaromVisibWave heightAir tempDewpointWater temp
2017-Dec-24 09:36N 36°50' W 075°47'410.1
2017-Dec-24 09:14N 36°51' W 075°50'2 9.5
2017-Dec-24 09:00N 36°53' W 075°53'5 9.6
2017-Dec-24 08:30N 36°56' W 075°57'510.0
2017-Dec-24 08:00N 36°57' W 076°03'5 9.7
2017-Dec-24 07:30N 36°59' W 076°09'6 9.2
2017-Dec-24 06:54N 37°00' W 076°16'410.3
2017-Dec-24 06:29N 36°58' W 076°20'4 8.1
2017-Dec-24 06:00N 36°57' W 076°25'1 0.0
2017-Dec-23 01:07N 36°58' W 076°26'0 0.0
2017-Dec-23 00:58N 36°58' W 076°26'0 0.0
2017-Dec-22 11:55N 36°58' W 076°26'0 0.7
2017-Dec-22 11:29N 36°58' W 076°26'3 6.3
2017-Dec-22 11:00N 36°57' W 076°22'611.4
2017-Dec-22 10:29N 37°00' W 076°16'612.8
2017-Dec-22 10:00N 36°59' W 076°08'612.7
2017-Dec-22 09:30N 36°57' W 076°01'5 9.1
2017-Dec-22 09:00N 36°56' W 075°55'3 7.0
2017-Dec-22 08:30N 36°53' W 075°52'5 9.5
2017-Dec-22 08:00N 36°50' W 075°47'  

Dump ship's entire track history